Time;durP1;ratioP1;P1;durP2;ratioP2;P2;SDS_P1;SDS_P2;PMS_P1;PMS_P2;Temp;Humidity;BMP_temperature;BMP_pressure;BME280_temperature;BME280_humidity;BME280_pressure;Samples;Min_cycle;Max_cycle;Signal;HPM_P1;HPM_P2
2023/03/29 00:00:10;;;;;;;2.00;1.90;;;8.60;56.20;8.50;96898.00;;;;5112022;27;20309;-81
2023/03/29 00:02:38;;;;;;;1.83;1.73;;;8.60;56.10;8.50;96912.00;;;;5111080;28;20273;-80
2023/03/29 00:05:07;;;;;;;3.30;1.83;;;8.60;56.00;8.50;96908.00;;;;5124244;28;20198;-81
2023/03/29 00:07:35;;;;;;;2.00;1.80;;;8.70;56.20;8.60;96896.00;;;;5111750;28;20207;-80
2023/03/29 00:10:04;;;;;;;2.40;2.20;;;8.70;56.30;8.60;96900.00;;;;5114277;28;20702;-80
2023/03/29 00:12:32;;;;;;;1.90;1.80;;;8.70;56.30;8.70;96896.00;;;;5120733;28;20190;-81
2023/03/29 00:15:01;;;;;;;2.43;2.23;;;8.70;56.10;8.70;96901.00;;;;5120224;27;20213;-81
2023/03/29 00:17:30;;;;;;;2.37;2.10;;;8.80;56.00;8.70;96900.00;;;;5099239;28;20198;-79
2023/03/29 00:19:58;;;;;;;1.60;1.50;;;8.80;55.90;8.70;96919.00;;;;5127643;27;20216;-81
2023/03/29 00:22:26;;;;;;;1.87;1.67;;;8.80;56.00;8.70;96911.00;;;;5110745;28;20219;-81
2023/03/29 00:24:54;;;;;;;3.30;1.80;;;8.80;55.90;8.70;96907.00;;;;5102015;27;20285;-79
2023/03/29 00:27:21;;;;;;;1.93;1.60;;;8.80;56.00;8.80;96918.00;;;;5127065;27;20281;-80
2023/03/29 00:29:49;;;;;;;1.73;1.63;;;8.90;56.20;8.80;96918.00;;;;5116520;27;20221;-80
2023/03/29 00:32:18;;;;;;;1.50;1.40;;;8.90;56.20;8.80;96920.00;;;;5125847;27;20293;-80
2023/03/29 00:34:49;;;;;;;1.90;1.70;;;8.90;56.10;8.90;96915.00;;;;5129733;27;20229;-81
2023/03/29 00:37:17;;;;;;;1.80;1.70;;;8.90;56.00;8.90;96920.00;;;;5120106;27;20220;-80
2023/03/29 00:39:46;;;;;;;2.00;1.80;;;9.00;55.90;8.90;96918.00;;;;5104074;28;20717;-81
2023/03/29 00:42:15;;;;;;;2.00;1.60;;;9.00;55.90;8.90;96922.00;;;;5134955;27;20309;-79
2023/03/29 00:45:04;;;;;;;2.00;1.80;;;9.00;55.90;8.90;96909.00;;;;5120556;27;20194;-80
2023/03/29 00:47:41;;;;;;;1.70;1.57;;;9.10;55.80;8.90;96921.00;;;;5120389;27;20231;-81
2023/03/29 00:50:15;;;;;;;2.70;1.73;;;9.10;55.60;8.90;96919.00;;;;5109589;28;20267;-80
2023/03/29 00:52:47;;;;;;;2.30;1.67;;;9.10;55.40;8.90;96929.00;;;;5113084;27;20266;-80
2023/03/29 00:55:21;;;;;;;1.90;1.50;;;9.00;55.30;8.90;96928.00;;;;5119841;27;20296;-80
2023/03/29 00:57:51;;;;;;;1.57;1.47;;;9.10;55.30;8.90;96924.00;;;;5106414;27;20290;-80
2023/03/29 01:00:24;;;;;;;1.60;1.50;;;9.10;55.30;8.90;96921.00;;;;5113814;28;20305;-80
2023/03/29 01:02:58;;;;;;;2.00;1.53;;;9.10;55.40;8.90;96920.00;;;;5126730;27;20280;-80
2023/03/29 01:05:32;;;;;;;1.47;1.20;;;9.10;55.60;8.90;96920.00;;;;5115680;27;20222;-81
2023/03/29 01:08:05;;;;;;;2.00;1.40;;;9.10;55.90;8.90;96921.00;;;;5120013;27;20279;-80
2023/03/29 01:10:41;;;;;;;1.50;1.40;;;9.10;56.10;8.90;96912.00;;;;5119251;27;20215;-80
2023/03/29 01:13:15;;;;;;;2.33;1.70;;;9.10;56.20;8.90;96899.00;;;;5124721;27;20722;-80
2023/03/29 01:15:47;;;;;;;1.13;1.00;;;9.10;56.50;8.90;96896.00;;;;5119276;28;20220;-81
2023/03/29 01:18:15;;;;;;;1.40;1.30;;;9.10;56.90;8.90;96895.00;;;;5117341;28;20277;-80
2023/03/29 01:21:14;;;;;;;2.37;1.40;;;9.10;57.30;8.90;96888.00;;;;5140835;27;20217;-80
2023/03/29 01:24:29;;;;;;;3.30;1.70;;;9.10;57.70;8.90;96880.00;;;;5140826;27;20300;-81
2023/03/29 01:27:05;;;;;;;1.27;1.17;;;9.10;58.10;8.90;96879.00;;;;5124284;27;20240;-80
2023/03/29 01:29:39;;;;;;;2.13;1.40;;;9.10;58.20;8.90;96879.00;;;;5102618;28;20712;-80
2023/03/29 01:32:13;;;;;;;1.50;1.33;;;9.10;58.50;8.90;96877.00;;;;5117773;28;20290;-80
2023/03/29 01:34:48;;;;;;;1.23;1.13;;;9.10;58.80;8.90;96873.00;;;;5103901;28;20207;-80
2023/03/29 01:37:23;;;;;;;1.33;1.23;;;9.10;58.90;8.90;96869.00;;;;5133959;27;20670;-80
2023/03/29 01:39:52;;;;;;;1.73;1.10;;;9.10;59.20;8.90;96868.00;;;;5123295;27;20299;-80
2023/03/29 01:42:37;;;;;;;1.83;1.30;;;9.10;59.30;9.00;96861.00;;;;5110030;28;20305;-80
2023/03/29 01:45:22;;;;;;;1.40;1.30;;;9.20;59.70;9.00;96859.00;;;;5124591;27;20198;-80
2023/03/29 01:48:02;;;;;;;1.57;1.07;;;9.20;59.90;9.00;96852.00;;;;5114208;27;20210;-81
2023/03/29 01:50:42;;;;;;;1.40;1.23;;;9.20;60.10;9.00;96837.00;;;;5095372;28;20233;-80
2023/03/29 01:53:17;;;;;;;1.47;1.37;;;9.20;60.30;9.10;96842.00;;;;5091630;28;20195;-80
2023/03/29 01:55:52;;;;;;;1.90;1.40;;;9.20;60.30;9.00;96837.00;;;;5124173;27;20193;-79
2023/03/29 01:58:23;;;;;;;1.20;1.10;;;9.20;60.20;9.00;96841.00;;;;5121495;27;20261;-79
2023/03/29 02:00:54;;;;;;;1.40;1.20;;;9.20;60.20;9.00;96835.00;;;;5110718;27;20690;-79
2023/03/29 02:03:29;;;;;;;1.07;1.07;;;9.20;60.50;9.10;96827.00;;;;5115101;27;20218;-80
2023/03/29 02:05:59;;;;;;;1.40;1.30;;;9.20;60.70;9.10;96819.00;;;;5122759;27;20198;-80
2023/03/29 02:08:28;;;;;;;1.10;1.10;;;9.20;60.50;9.00;96806.00;;;;5106334;27;20199;-79
2023/03/29 02:10:57;;;;;;;1.37;1.27;;;9.20;60.70;9.00;96797.00;;;;5134954;27;20308;-79
2023/03/29 02:13:24;;;;;;;1.20;1.10;;;9.20;60.70;9.00;96784.00;;;;5124350;27;20201;-80
2023/03/29 02:15:54;;;;;;;1.20;1.20;;;9.20;60.90;9.00;96802.00;;;;5119226;27;20196;-80
2023/03/29 02:18:21;;;;;;;1.20;1.10;;;9.20;61.10;9.00;96802.00;;;;5133463;27;20258;-81
2023/03/29 02:20:52;;;;;;;1.47;1.17;;;9.20;61.20;9.00;96806.00;;;;5143051;27;20235;-82
2023/03/29 02:23:27;;;;;;;1.10;1.00;;;9.20;61.60;9.10;96793.00;;;;5113307;27;20242;-81
2023/03/29 02:25:55;;;;;;;0.80;0.80;;;9.20;61.70;9.10;96806.00;;;;5120374;27;20194;-80
2023/03/29 02:28:25;;;;;;;1.17;1.07;;;9.20;61.70;9.10;96804.00;;;;5121497;27;20281;-80
2023/03/29 02:31:01;;;;;;;1.40;1.30;;;9.20;61.80;9.10;96786.00;;;;5115390;28;20245;-80
2023/03/29 02:33:40;;;;;;;0.87;0.83;;;9.30;62.10;9.10;96787.00;;;;5120312;27;20223;-80
2023/03/29 02:36:14;;;;;;;1.03;0.90;;;9.30;62.00;9.10;96793.00;;;;5117935;27;20281;-80
2023/03/29 02:38:42;;;;;;;0.83;0.83;;;9.30;61.90;9.10;96799.00;;;;5108285;28;20732;-80
2023/03/29 02:41:11;;;;;;;1.00;0.90;;;9.30;62.10;9.10;96789.00;;;;5115976;27;20967;-80
2023/03/29 02:43:41;;;;;;;0.87;0.87;;;9.30;62.30;9.10;96781.00;;;;5112755;27;20211;-80
2023/03/29 02:46:11;;;;;;;2.03;1.00;;;9.30;62.30;9.10;96777.00;;;;5114321;27;20221;-81
2023/03/29 02:48:39;;;;;;;0.90;0.90;;;9.30;62.40;9.10;96772.00;;;;5100442;27;20213;-81
2023/03/29 02:51:15;;;;;;;0.97;0.93;;;9.30;62.50;9.10;96760.00;;;;5087448;28;20199;-82
2023/03/29 02:53:52;;;;;;;1.37;1.20;;;9.30;62.80;9.20;96754.00;;;;5112822;28;20655;-80
2023/03/29 02:56:20;;;;;;;0.80;0.80;;;9.30;62.60;9.20;96748.00;;;;5096919;27;20226;-81
2023/03/29 02:58:48;;;;;;;1.33;0.87;;;9.30;62.40;9.20;96749.00;;;;5115525;27;20226;-80
2023/03/29 03:01:19;;;;;;;2.43;0.80;;;9.30;62.60;9.20;96749.00;;;;5109905;27;20195;-80
2023/03/29 03:03:47;;;;;;;1.00;1.00;;;9.30;62.80;9.20;96743.00;;;;5117100;27;20215;-80
2023/03/29 03:06:14;;;;;;;0.90;0.77;;;9.30;62.80;9.20;96744.00;;;;5106730;28;20195;-80
2023/03/29 03:08:42;;;;;;;0.90;0.90;;;9.40;63.00;9.20;96742.00;;;;5127965;27;20226;-80
2023/03/29 03:11:09;;;;;;;0.73;0.73;;;9.40;63.00;9.20;96736.00;;;;5137523;27;20213;-80
2023/03/29 03:13:36;;;;;;;0.70;0.70;;;9.30;63.00;9.20;96749.00;;;;5133166;27;20810;-81
2023/03/29 03:16:04;;;;;;;1.00;0.90;;;9.40;63.20;9.30;96731.00;;;;5104769;27;20635;-81
2023/03/29 03:18:33;;;;;;;1.47;0.73;;;9.40;63.20;9.30;96729.00;;;;5132093;27;20198;-80
2023/03/29 03:21:03;;;;;;;0.80;0.80;;;9.40;63.30;9.30;96732.00;;;;5123994;27;20727;-80
2023/03/29 03:23:31;;;;;;;1.03;0.80;;;9.40;63.30;9.30;96722.00;;;;5116105;28;20604;-80
2023/03/29 03:25:59;;;;;;;0.53;0.53;;;9.50;63.40;9.30;96725.00;;;;5129105;27;20635;-80
2023/03/29 03:28:26;;;;;;;0.87;0.80;;;9.50;63.60;9.30;96730.00;;;;5137322;27;20194;-82
2023/03/29 03:30:54;;;;;;;0.80;0.80;;;9.50;63.20;9.30;96725.00;;;;5131062;27;20210;-81
2023/03/29 03:33:21;;;;;;;1.90;0.80;;;9.50;63.30;9.30;96722.00;;;;5131723;27;20775;-80
2023/03/29 03:35:50;;;;;;;1.63;1.10;;;9.50;63.40;9.30;96719.00;;;;5134371;27;20280;-80
2023/03/29 03:38:18;;;;;;;0.70;0.70;;;9.50;63.50;9.30;96707.00;;;;5099683;27;20686;-81
2023/03/29 03:40:45;;;;;;;0.90;0.60;;;9.50;63.50;9.30;96714.00;;;;5131554;27;20248;-81
2023/03/29 03:43:14;;;;;;;1.37;0.73;;;9.50;63.50;9.30;96712.00;;;;5117497;27;20291;-79
2023/03/29 03:45:42;;;;;;;1.30;0.80;;;9.40;63.40;9.30;96704.00;;;;5107177;27;20270;-80
2023/03/29 03:48:11;;;;;;;0.70;0.70;;;9.50;63.40;9.20;96701.00;;;;5112328;27;20582;-80
2023/03/29 03:50:39;;;;;;;0.80;0.80;;;9.50;63.30;9.20;96694.00;;;;5107900;27;20290;-80
2023/03/29 03:53:08;;;;;;;0.87;0.87;;;9.50;63.40;9.10;96692.00;;;;5119129;27;20619;-80
2023/03/29 03:55:35;;;;;;;0.80;0.60;;;9.40;63.30;9.10;96702.00;;;;5121605;27;20227;-81
2023/03/29 03:58:02;;;;;;;0.57;0.57;;;9.40;63.50;9.10;96699.00;;;;5117683;27;20217;-81
2023/03/29 04:00:29;;;;;;;0.90;0.60;;;9.40;63.50;9.10;96695.00;;;;5112198;28;20301;-80
2023/03/29 04:02:57;;;;;;;0.60;0.60;;;9.40;63.50;9.00;96690.00;;;;5115658;28;20201;-79
2023/03/29 04:05:25;;;;;;;1.27;0.70;;;9.30;63.50;9.00;96683.00;;;;5136130;27;20216;-80
2023/03/29 04:07:53;;;;;;;0.53;0.53;;;9.30;63.40;9.00;96687.00;;;;5087706;28;20222;-80
2023/03/29 04:10:22;;;;;;;0.63;0.63;;;9.30;63.60;9.00;96699.00;;;;5100790;28;20221;-80
2023/03/29 04:12:49;;;;;;;0.57;0.57;;;9.30;63.60;9.00;96698.00;;;;5116383;28;20194;-81
2023/03/29 04:15:19;;;;;;;1.03;0.40;;;9.30;63.70;9.00;96689.00;;;;5106568;28;20199;-80
2023/03/29 04:17:46;;;;;;;0.87;0.53;;;9.30;63.80;9.00;96677.00;;;;5112552;28;20191;-80
2023/03/29 04:20:13;;;;;;;0.67;0.50;;;9.30;63.90;9.00;96687.00;;;;5111348;28;20243;-80
2023/03/29 04:22:41;;;;;;;1.23;0.50;;;9.20;63.90;9.00;96673.00;;;;5117908;28;20735;-80
2023/03/29 04:25:10;;;;;;;0.50;0.50;;;9.20;63.90;9.00;96666.00;;;;5108706;28;20214;-79
2023/03/29 04:27:40;;;;;;;0.40;0.40;;;9.20;63.90;8.90;96668.00;;;;5102719;28;20684;-81
2023/03/29 04:30:09;;;;;;;0.53;0.53;;;9.20;63.70;8.90;96663.00;;;;5115788;28;20282;-80
2023/03/29 04:32:37;;;;;;;0.50;0.50;;;9.20;63.90;8.90;96647.00;;;;5116821;28;20289;-81
2023/03/29 04:35:05;;;;;;;0.90;0.60;;;9.20;64.00;8.90;96653.00;;;;5127279;28;20305;-80
2023/03/29 04:37:34;;;;;;;0.50;0.50;;;9.20;64.40;8.90;96667.00;;;;5112339;28;20226;-80
2023/03/29 04:40:03;;;;;;;0.60;0.60;;;9.10;64.00;8.90;96644.00;;;;5116490;28;20293;-80
2023/03/29 04:42:31;;;;;;;0.60;0.50;;;9.20;64.30;8.90;96639.00;;;;5124351;27;20202;-81
2023/03/29 04:45:01;;;;;;;0.97;0.50;;;9.20;64.30;8.90;96647.00;;;;5133214;28;20225;-81
2023/03/29 04:47:30;;;;;;;0.63;0.50;;;9.20;64.40;8.90;96636.00;;;;5123851;28;20213;-81
2023/03/29 04:49:58;;;;;;;0.50;0.50;;;9.20;64.30;8.90;96635.00;;;;5133216;28;20240;-80
2023/03/29 04:52:26;;;;;;;0.80;0.77;;;9.10;64.30;8.90;96639.00;;;;5123451;27;20191;-80
2023/03/29 04:54:53;;;;;;;0.50;0.50;;;9.20;64.30;8.90;96639.00;;;;5108987;28;20191;-81
2023/03/29 04:57:20;;;;;;;0.70;0.70;;;9.10;64.40;8.90;96635.00;;;;5098096;28;20223;-81
2023/03/29 04:59:48;;;;;;;0.70;0.70;;;9.10;64.30;8.90;96640.00;;;;5116367;28;20210;-79
2023/03/29 05:02:17;;;;;;;0.90;0.60;;;9.10;64.40;8.90;96638.00;;;;5122560;27;20197;-81
2023/03/29 05:04:44;;;;;;;0.67;0.53;;;9.10;64.50;8.90;96648.00;;;;5123172;27;20222;-82
2023/03/29 05:07:11;;;;;;;0.50;0.50;;;9.10;64.60;8.90;96641.00;;;;5114253;27;20279;-79
2023/03/29 05:09:40;;;;;;;1.10;1.00;;;9.10;64.70;8.90;96639.00;;;;5132208;27;20675;-80
2023/03/29 05:12:07;;;;;;;0.50;0.50;;;9.10;64.70;8.90;96638.00;;;;5122721;27;20193;-80
2023/03/29 05:14:35;;;;;;;0.60;0.60;;;9.10;64.90;9.00;96640.00;;;;5118270;28;20213;-79
2023/03/29 05:17:05;;;;;;;0.70;0.57;;;9.20;65.00;9.00;96649.00;;;;5138115;27;20228;-79
2023/03/29 05:19:35;;;;;;;0.67;0.67;;;9.20;65.00;9.00;96639.00;;;;5137202;27;20214;-79
2023/03/29 05:22:02;;;;;;;0.70;0.60;;;9.20;65.10;9.10;96632.00;;;;5127420;27;20199;-79
2023/03/29 05:24:30;;;;;;;0.60;0.60;;;9.20;65.00;9.10;96633.00;;;;5118010;28;20745;-80
2023/03/29 05:26:57;;;;;;;0.93;0.60;;;9.20;64.90;9.10;96623.00;;;;5135871;27;20198;-79
2023/03/29 05:29:25;;;;;;;0.40;0.40;;;9.30;64.80;9.10;96627.00;;;;5138572;27;20224;-80
2023/03/29 05:31:53;;;;;;;0.50;0.50;;;9.30;64.80;9.10;96624.00;;;;5133370;27;21312;-80
2023/03/29 05:34:20;;;;;;;1.17;0.80;;;9.30;64.80;9.10;96623.00;;;;5137303;27;20219;-79
2023/03/29 05:36:49;;;;;;;0.60;0.60;;;9.20;64.80;9.20;96620.00;;;;5133037;27;20221;-80
2023/03/29 05:39:16;;;;;;;0.63;0.63;;;9.30;65.00;9.20;96630.00;;;;5121151;27;20566;-79
2023/03/29 05:41:44;;;;;;;1.17;0.70;;;9.30;65.00;9.30;96628.00;;;;5129082;27;20641;-80
2023/03/29 05:44:11;;;;;;;0.50;0.50;;;9.40;65.10;9.30;96628.00;;;;5115635;28;20719;-79
2023/03/29 05:46:39;;;;;;;0.70;0.50;;;9.40;65.10;9.30;96629.00;;;;5127829;27;20698;-80
2023/03/29 05:49:06;;;;;;;0.60;0.60;;;9.40;65.10;9.30;96621.00;;;;5116729;27;20214;-79
2023/03/29 05:51:34;;;;;;;0.90;0.80;;;9.50;65.00;9.40;96621.00;;;;5105668;28;20202;-83
2023/03/29 05:54:03;;;;;;;0.50;0.50;;;9.50;65.00;9.50;96616.00;;;;5117422;28;20325;-81
2023/03/29 05:56:30;;;;;;;0.90;0.90;;;9.50;65.10;9.50;96620.00;;;;5100435;27;20231;-83
2023/03/29 05:58:58;;;;;;;0.83;0.83;;;9.50;65.10;9.60;96621.00;;;;5095785;28;20219;-82
2023/03/29 06:01:25;;;;;;;0.60;0.50;;;9.60;65.10;9.70;96623.00;;;;5116762;27;20278;-82
2023/03/29 06:03:54;;;;;;;0.73;0.70;;;9.60;65.00;9.80;96629.00;;;;5099329;28;20223;-83
2023/03/29 06:06:22;;;;;;;2.10;0.83;;;9.70;64.90;9.80;96635.00;;;;5114636;27;20218;-81
2023/03/29 06:08:50;;;;;;;0.60;0.60;;;9.70;64.70;9.90;96633.00;;;;5112614;27;20206;-82
2023/03/29 06:11:21;;;;;;;0.70;0.70;;;9.80;64.70;9.90;96637.00;;;;5121201;27;20194;-82
2023/03/29 06:13:48;;;;;;;0.70;0.70;;;9.80;64.70;10.00;96640.00;;;;5090096;28;20197;-81
2023/03/29 06:16:16;;;;;;;0.60;0.60;;;9.90;64.70;10.10;96638.00;;;;5107686;27;20641;-81
2023/03/29 06:18:44;;;;;;;0.70;0.70;;;9.90;64.60;10.10;96637.00;;;;5115115;28;20275;-82
2023/03/29 06:21:11;;;;;;;1.30;0.67;;;10.00;64.70;10.20;96640.00;;;;5116401;28;20619;-82
2023/03/29 06:23:39;;;;;;;1.57;0.63;;;10.00;64.50;10.20;96636.00;;;;5115083;28;20187;-83
2023/03/29 06:26:07;;;;;;;0.60;0.60;;;10.00;64.60;10.30;96634.00;;;;5112615;28;20237;-80
2023/03/29 06:28:36;;;;;;;0.70;0.63;;;10.20;64.80;10.30;96638.00;;;;5101942;28;20202;-80
2023/03/29 06:31:05;;;;;;;0.83;0.60;;;10.10;64.80;10.40;96639.00;;;;5124976;27;20202;-80
2023/03/29 06:33:33;;;;;;;0.60;0.60;;;10.20;64.80;10.40;96640.00;;;;5103756;27;20239;-80
2023/03/29 06:36:00;;;;;;;1.33;0.70;;;10.30;64.80;10.50;96643.00;;;;5116839;27;20583;-80
2023/03/29 06:38:29;;;;;;;0.83;0.83;;;10.30;64.80;10.50;96649.00;;;;5110117;27;20273;-80
2023/03/29 06:41:02;;;;;;;0.60;0.60;;;10.30;64.80;10.50;96655.00;;;;5111420;28;20234;-80
2023/03/29 06:43:31;;;;;;;0.70;0.70;;;10.30;64.70;10.60;96650.00;;;;5128844;27;20199;-80
2023/03/29 06:46:00;;;;;;;0.60;0.60;;;10.40;64.50;10.60;96658.00;;;;5123017;27;20283;-79
2023/03/29 06:48:28;;;;;;;1.70;0.50;;;10.40;64.30;10.60;96650.00;;;;5116250;27;20208;-80
2023/03/29 06:50:55;;;;;;;1.10;0.80;;;10.40;64.00;10.60;96660.00;;;;5126701;27;20303;-81
2023/03/29 06:53:23;;;;;;;0.60;0.60;;;10.40;63.90;10.60;96662.00;;;;5104444;27;20210;-81
2023/03/29 06:55:53;;;;;;;0.67;0.67;;;10.40;64.00;10.70;96659.00;;;;5112190;28;20202;-81
2023/03/29 06:58:20;;;;;;;0.50;0.50;;;10.40;64.20;10.70;96657.00;;;;5105101;28;20285;-80
2023/03/29 07:00:48;;;;;;;1.43;0.50;;;10.50;64.60;10.80;96667.00;;;;5104470;27;20226;-79
2023/03/29 07:03:22;;;;;;;0.60;0.60;;;10.50;64.60;10.80;96660.00;;;;5113695;27;20751;-82
2023/03/29 07:05:50;;;;;;;0.50;0.50;;;10.60;64.60;10.80;96662.00;;;;5114496;28;20318;-81
2023/03/29 07:08:19;;;;;;;0.53;0.53;;;10.60;64.50;10.90;96662.00;;;;5109789;27;20200;-80
2023/03/29 07:10:51;;;;;;;1.10;1.00;;;10.70;64.70;11.00;96661.00;;;;5117878;28;20212;-82
2023/03/29 07:13:18;;;;;;;0.97;0.97;;;10.70;64.70;11.10;96662.00;;;;5104456;27;20188;-82
2023/03/29 07:15:45;;;;;;;1.90;1.10;;;10.80;64.80;11.20;96657.00;;;;5122939;27;20186;-82
2023/03/29 07:18:13;;;;;;;1.80;1.20;;;10.90;65.00;11.30;96663.00;;;;5143945;27;20230;-83
2023/03/29 07:20:42;;;;;;;0.80;0.80;;;11.00;65.00;11.50;96670.00;;;;5125349;27;20253;-82
2023/03/29 07:23:12;;;;;;;1.40;0.80;;;11.10;65.20;11.60;96669.00;;;;5108499;28;20215;-82
2023/03/29 07:25:39;;;;;;;0.90;0.90;;;11.20;65.30;11.70;96674.00;;;;5123872;27;20220;-81
2023/03/29 07:28:07;;;;;;;0.93;0.87;;;11.30;65.30;11.80;96671.00;;;;5135718;27;20190;-82
2023/03/29 07:30:35;;;;;;;1.83;1.00;;;11.40;65.30;11.90;96672.00;;;;5134466;27;20275;-82
2023/03/29 07:33:04;;;;;;;1.47;1.20;;;11.50;65.20;12.00;96666.00;;;;5104513;27;20241;-82
2023/03/29 07:35:32;;;;;;;1.37;1.03;;;11.60;65.20;12.10;96664.00;;;;5094167;28;20671;-82
2023/03/29 07:38:01;;;;;;;0.90;0.90;;;11.70;65.20;12.20;96678.00;;;;5106364;28;20202;-82
2023/03/29 07:40:29;;;;;;;0.90;0.90;;;11.80;65.20;12.30;96679.00;;;;5114572;28;20223;-82
2023/03/29 07:42:58;;;;;;;0.83;0.80;;;11.90;65.20;12.40;96672.00;;;;5100392;28;20206;-81
2023/03/29 07:45:28;;;;;;;1.63;1.07;;;12.00;65.00;12.60;96666.00;;;;5094434;28;20304;-80
2023/03/29 07:47:57;;;;;;;0.80;0.73;;;12.10;64.80;12.60;96667.00;;;;5110645;27;20236;-82
2023/03/29 07:50:26;;;;;;;2.27;2.07;;;12.20;64.60;12.70;96675.00;;;;5102897;27;20238;-81
2023/03/29 07:52:55;;;;;;;1.10;1.00;;;12.30;64.20;12.80;96683.00;;;;5135518;27;20277;-80
2023/03/29 07:55:24;;;;;;;1.77;1.10;;;12.40;64.10;12.80;96681.00;;;;5108759;27;20206;-80
2023/03/29 07:57:52;;;;;;;2.33;1.13;;;12.50;64.00;12.90;96672.00;;;;5114006;27;20630;-81
2023/03/29 08:00:23;;;;;;;3.70;2.97;;;12.60;63.90;13.00;96675.00;;;;5110982;28;20219;-80
2023/03/29 08:02:52;;;;;;;3.70;3.40;;;12.60;63.70;13.00;96669.00;;;;5113537;27;20285;-81
2023/03/29 08:05:22;;;;;;;2.47;2.37;;;12.70;63.60;13.10;96675.00;;;;5105420;28;20222;-81
2023/03/29 08:07:50;;;;;;;1.60;1.20;;;12.70;63.50;13.20;96676.00;;;;5115109;28;20325;-80
2023/03/29 08:10:20;;;;;;;3.27;1.20;;;12.80;63.50;13.30;96681.00;;;;5106258;28;20246;-80
2023/03/29 08:12:52;;;;;;;0.87;0.87;;;12.80;63.40;13.30;96681.00;;;;5130202;28;20218;-81
2023/03/29 08:15:20;;;;;;;1.23;0.90;;;12.90;63.50;13.40;96682.00;;;;5136044;27;20236;-81
2023/03/29 08:17:48;;;;;;;0.97;0.77;;;13.00;63.60;13.60;96681.00;;;;5136345;28;20294;-81
2023/03/29 08:20:16;;;;;;;0.87;0.87;;;13.10;63.60;13.60;96682.00;;;;5129411;27;20214;-80
2023/03/29 08:22:44;;;;;;;0.70;0.70;;;13.20;63.50;13.70;96681.00;;;;5113610;27;20205;-81
2023/03/29 08:25:12;;;;;;;1.47;0.70;;;13.30;63.40;13.80;96673.00;;;;5114890;28;20222;-80
2023/03/29 08:27:39;;;;;;;0.70;0.63;;;13.40;63.10;13.90;96676.00;;;;5114067;28;20193;-79
2023/03/29 08:30:10;;;;;;;0.57;0.57;;;13.50;62.90;14.00;96685.00;;;;5090922;28;20242;-81
2023/03/29 08:32:38;;;;;;;1.03;0.60;;;13.50;62.90;14.00;96687.00;;;;5115379;28;20266;-80
2023/03/29 08:35:09;;;;;;;2.67;0.80;;;13.60;62.70;14.10;96681.00;;;;5115482;28;20234;-81
2023/03/29 08:37:37;;;;;;;1.10;0.73;;;13.70;62.60;14.20;96688.00;;;;5118684;28;20288;-80
2023/03/29 08:40:07;;;;;;;1.03;0.93;;;13.80;63.20;14.20;96700.00;;;;5120275;27;20210;-80
2023/03/29 08:42:55;;;;;;;1.07;0.83;;;13.80;62.20;14.20;96700.00;;;;5130919;27;20284;-80
2023/03/29 08:45:35;;;;;;;0.60;0.60;;;13.90;62.00;14.30;96692.00;;;;5136668;27;20368;-80
2023/03/29 08:48:17;;;;;;;1.50;0.80;;;14.00;62.00;14.40;96702.00;;;;5133883;27;20223;-80
2023/03/29 08:50:51;;;;;;;0.93;0.87;;;14.10;61.80;14.40;96702.00;;;;5125835;27;20210;-80
2023/03/29 08:53:25;;;;;;;1.33;1.00;;;14.10;61.70;14.50;96692.00;;;;5123834;27;20269;-80
2023/03/29 08:55:57;;;;;;;1.30;0.90;;;14.20;61.40;14.50;96687.00;;;;5119144;28;20226;-81
2023/03/29 08:58:31;;;;;;;0.67;0.67;;;14.30;61.20;14.60;96678.00;;;;5110912;27;20198;-80
2023/03/29 09:01:07;;;;;;;0.87;0.53;;;14.30;61.30;14.80;96684.00;;;;5111810;27;20245;-80
2023/03/29 09:03:40;;;;;;;1.17;0.60;;;14.40;61.40;15.00;96694.00;;;;5120689;27;20198;-80
2023/03/29 09:06:11;;;;;;;0.80;0.80;;;14.50;61.60;15.10;96688.00;;;;5126705;27;20218;-79
2023/03/29 09:08:43;;;;;;;0.70;0.60;;;14.60;61.60;15.30;96685.00;;;;5119517;27;20207;-79
2023/03/29 09:11:42;;;;;;;1.07;0.80;;;14.70;61.60;15.50;96689.00;;;;5119737;27;20229;-79
2023/03/29 09:14:39;;;;;;;0.80;0.50;;;14.90;60.60;15.70;96691.00;;;;5119363;28;20230;-80
2023/03/29 09:17:25;;;;;;;0.57;0.30;;;15.00;60.60;15.80;96686.00;;;;5121400;28;21668;-79
2023/03/29 09:20:05;;;;;;;0.90;0.50;;;15.20;60.60;16.00;96701.00;;;;5120937;27;20242;-80
2023/03/29 09:22:43;;;;;;;2.20;0.63;;;15.30;60.20;16.10;96709.00;;;;5119667;27;20198;-80
2023/03/29 09:25:22;;;;;;;0.37;0.37;;;15.50;59.40;16.20;96697.00;;;;5139884;27;20233;-80
2023/03/29 09:27:58;;;;;;;0.40;0.40;;;15.60;59.00;16.30;96696.00;;;;5135394;27;20191;-80
2023/03/29 09:30:30;;;;;;;0.40;0.40;;;15.70;59.00;16.40;96688.00;;;;5112923;27;20764;-80
2023/03/29 09:33:06;;;;;;;0.50;0.50;;;15.80;58.90;16.60;96687.00;;;;5115498;28;20627;-80
2023/03/29 09:35:41;;;;;;;0.50;0.50;;;16.00;59.00;16.80;96679.00;;;;5122373;27;20240;-81
2023/03/29 09:38:12;;;;;;;0.93;0.40;;;16.10;58.60;16.90;96688.00;;;;5122185;27;20288;-80
2023/03/29 09:40:45;;;;;;;1.13;0.47;;;16.30;58.40;17.10;96687.00;;;;5110939;27;20698;-79
2023/03/29 09:43:19;;;;;;;2.07;0.60;;;16.40;58.00;17.20;96695.00;;;;5124478;27;20253;-79
2023/03/29 09:45:55;;;;;;;0.77;0.40;;;16.50;57.50;17.30;96699.00;;;;5131521;27;20753;-79
2023/03/29 09:48:29;;;;;;;1.00;0.73;;;16.60;57.10;17.30;96683.00;;;;5134420;27;20653;-79
2023/03/29 09:50:57;;;;;;;0.90;0.50;;;16.80;56.90;17.40;96682.00;;;;5126267;27;20226;-80
2023/03/29 09:53:25;;;;;;;0.40;0.40;;;16.90;56.70;17.50;96685.00;;;;5130739;28;20210;-80
2023/03/29 09:55:54;;;;;;;0.50;0.50;;;16.90;56.40;17.50;96685.00;;;;5132213;27;20186;-80
2023/03/29 09:58:26;;;;;;;0.80;0.70;;;17.00;56.30;17.60;96684.00;;;;5111778;28;20214;-80
2023/03/29 10:00:57;;;;;;;0.60;0.50;;;17.10;56.10;17.60;96681.00;;;;5120482;27;20214;-80
2023/03/29 10:03:28;;;;;;;0.73;0.50;;;17.10;55.90;17.60;96678.00;;;;5135520;27;20190;-80
2023/03/29 10:06:00;;;;;;;1.17;0.80;;;17.20;55.60;17.60;96678.00;;;;5139185;27;20687;-79
2023/03/29 10:08:35;;;;;;;0.77;0.77;;;17.20;55.60;17.60;96687.00;;;;5124172;27;20210;-80
2023/03/29 10:11:09;;;;;;;0.63;0.60;;;17.20;54.80;17.50;96677.00;;;;5117863;27;20194;-80
2023/03/29 10:13:48;;;;;;;1.40;0.57;;;17.20;54.80;17.60;96671.00;;;;5110834;27;20202;-80
2023/03/29 10:16:22;;;;;;;0.50;0.50;;;17.20;54.80;17.60;96679.00;;;;5126010;27;20194;-80
2023/03/29 10:18:53;;;;;;;0.83;0.77;;;17.30;54.80;17.70;96680.00;;;;5116469;27;20268;-80
2023/03/29 10:21:22;;;;;;;2.33;0.60;;;17.30;55.00;17.80;96674.00;;;;5113360;27;20195;-80
2023/03/29 10:23:58;;;;;;;1.17;0.60;;;17.30;55.00;17.90;96671.00;;;;5116449;28;20199;-80
2023/03/29 10:26:34;;;;;;;1.90;1.00;;;17.40;54.90;17.90;96673.00;;;;5124886;27;20229;-80
2023/03/29 10:29:07;;;;;;;1.87;1.10;;;17.40;54.60;18.00;96667.00;;;;5122498;27;20698;-80
2023/03/29 10:31:37;;;;;;;1.70;0.90;;;17.50;54.90;18.10;96668.00;;;;5115743;27;20281;-80
2023/03/29 10:34:08;;;;;;;0.50;0.50;;;17.60;54.60;18.10;96665.00;;;;5116162;27;20203;-81
2023/03/29 10:36:40;;;;;;;0.93;0.63;;;17.60;53.80;18.20;96666.00;;;;5114176;28;20282;-80
2023/03/29 10:39:10;;;;;;;0.50;0.50;;;17.70;54.20;18.20;96655.00;;;;5113632;28;20222;-80
2023/03/29 10:41:39;;;;;;;1.23;0.40;;;17.70;54.00;18.30;96661.00;;;;5126471;27;20246;-80
2023/03/29 10:44:25;;;;;;;1.00;0.50;;;17.80;54.30;18.50;96650.00;;;;5139166;27;20251;-80
2023/03/29 10:46:52;;;;;;;0.60;0.40;;;17.90;54.40;18.60;96650.00;;;;5121701;27;20298;-80
2023/03/29 10:49:24;;;;;;;1.40;0.50;;;18.00;53.90;18.70;96649.00;;;;5131992;27;20305;-80
2023/03/29 10:51:53;;;;;;;0.53;0.53;;;18.10;54.00;18.80;96655.00;;;;5117996;27;20218;-80
2023/03/29 10:54:24;;;;;;;1.43;0.50;;;18.20;54.00;18.90;96657.00;;;;5118262;28;20225;-80
2023/03/29 10:56:57;;;;;;;0.57;0.43;;;18.40;53.60;19.00;96639.00;;;;5118158;28;20289;-80
2023/03/29 10:59:29;;;;;;;0.50;0.50;;;18.50;53.10;19.00;96638.00;;;;5115648;28;20215;-80
2023/03/29 11:02:43;;;;;;;0.93;0.60;;;18.60;53.10;19.10;96651.00;;;;5111817;28;20206;-80
2023/03/29 11:05:28;;;;;;;0.50;0.50;;;18.60;52.20;19.10;96647.00;;;;5115696;28;20202;-80
2023/03/29 11:08:41;;;;;;;0.83;0.70;;;18.70;52.10;19.20;96642.00;;;;5105616;28;20199;-80
2023/03/29 11:11:29;;;;;;;0.60;0.60;;;18.80;51.40;19.30;96639.00;;;;5120418;27;20289;-80
2023/03/29 11:14:08;;;;;;;0.50;0.50;;;18.80;51.80;19.30;96635.00;;;;5100662;28;20205;-80
2023/03/29 11:16:46;;;;;;;1.53;0.50;;;18.90;51.30;19.30;96644.00;;;;5115009;27;20226;-80
2023/03/29 11:19:55;;;;;;;0.70;0.50;;;18.90;51.50;19.40;96642.00;;;;5101082;28;20234;-81